createdAt,value
2018-08-22T00:01:33.613Z,22.30
2018-08-22T00:04:02.256Z,22.20
2018-08-22T00:06:30.928Z,22.10
2018-08-22T00:08:59.629Z,22.10
2018-08-22T00:11:28.291Z,22.10
2018-08-22T00:13:56.968Z,22.10
2018-08-22T00:16:25.679Z,22.00
2018-08-22T00:18:54.370Z,22.00
2018-08-22T00:21:23.952Z,21.90
2018-08-22T00:23:52.601Z,21.80
2018-08-22T00:26:21.270Z,21.80
2018-08-22T00:28:49.932Z,21.70
2018-08-22T00:31:18.585Z,21.60
2018-08-22T00:33:47.230Z,21.60
2018-08-22T00:36:15.915Z,21.60
2018-08-22T00:38:44.568Z,21.50
2018-08-22T00:41:13.265Z,21.60
2018-08-22T00:43:41.925Z,21.70
2018-08-22T00:46:10.572Z,21.80
2018-08-22T00:48:39.196Z,21.80
2018-08-22T00:51:07.859Z,21.80
2018-08-22T00:53:36.495Z,21.70
2018-08-22T00:56:05.224Z,21.70
2018-08-22T00:58:33.908Z,21.70
2018-08-22T01:01:02.569Z,21.60
2018-08-22T01:03:31.209Z,21.60
2018-08-22T01:05:59.855Z,21.60
2018-08-22T01:08:28.508Z,21.60
2018-08-22T01:10:57.188Z,21.50
2018-08-22T01:13:25.867Z,21.40
2018-08-22T01:15:54.583Z,21.40
2018-08-22T01:18:23.251Z,21.30
2018-08-22T01:20:51.904Z,21.30
2018-08-22T01:23:20.529Z,21.30
2018-08-22T01:25:49.176Z,21.30
2018-08-22T01:28:17.812Z,21.30
2018-08-22T01:30:46.468Z,21.30
2018-08-22T01:33:15.171Z,21.30
2018-08-22T01:35:43.847Z,21.20
2018-08-22T01:38:12.486Z,21.20
2018-08-22T01:40:41.170Z,21.10
2018-08-22T01:43:09.812Z,21.10
2018-08-22T01:45:38.428Z,21.10
2018-08-22T01:48:07.104Z,21.10
2018-08-22T01:50:35.743Z,21.10
2018-08-22T01:53:04.440Z,21.10
2018-08-22T01:55:33.100Z,21.10
2018-08-22T01:58:01.752Z,21.10
2018-08-22T02:00:30.396Z,21.00
2018-08-22T02:02:59.034Z,20.90
2018-08-22T02:05:27.684Z,20.80
2018-08-22T02:07:56.320Z,20.80
2018-08-22T02:10:24.951Z,20.80
2018-08-22T02:12:53.615Z,20.80
2018-08-22T02:15:22.284Z,20.80
2018-08-22T02:17:50.919Z,20.70
2018-08-22T02:20:19.543Z,20.70
2018-08-22T02:22:48.155Z,20.80
2018-08-22T02:25:16.790Z,20.90
2018-08-22T02:27:45.440Z,20.80
2018-08-22T02:30:14.075Z,20.80
2018-08-22T02:32:42.704Z,20.80
2018-08-22T02:35:11.352Z,20.70
2018-08-22T02:37:39.971Z,20.70
2018-08-22T02:40:08.617Z,20.60
2018-08-22T02:42:37.252Z,20.70
2018-08-22T02:45:05.951Z,20.70
2018-08-22T02:47:34.581Z,20.60
2018-08-22T02:50:03.302Z,20.60
2018-08-22T02:52:31.947Z,20.60
2018-08-22T02:55:00.843Z,20.60
2018-08-22T02:57:29.550Z,20.50
2018-08-22T02:59:58.244Z,20.50
2018-08-22T03:02:26.876Z,20.50
2018-08-22T03:04:55.559Z,20.50
2018-08-22T03:07:24.252Z,20.50
2018-08-22T03:09:52.900Z,20.90
2018-08-22T03:12:21.572Z,20.50
2018-08-22T03:14:50.227Z,20.50
2018-08-22T03:17:18.899Z,20.50
2018-08-22T03:19:47.508Z,20.50
2018-08-22T03:22:16.301Z,20.40
2018-08-22T03:24:44.924Z,20.30
2018-08-22T03:27:13.565Z,20.30
2018-08-22T03:29:42.205Z,20.20
2018-08-22T03:32:10.902Z,20.20
2018-08-22T03:34:39.532Z,20.10
2018-08-22T03:37:08.156Z,20.20
2018-08-22T03:39:36.840Z,20.10
2018-08-22T03:42:05.517Z,20.10
2018-08-22T03:44:34.174Z,20.10
2018-08-22T03:47:02.872Z,20.20
2018-08-22T03:49:31.487Z,20.20
2018-08-22T03:52:00.160Z,20.20
2018-08-22T03:54:28.840Z,20.20
2018-08-22T03:56:57.488Z,20.20
2018-08-22T03:59:26.124Z,20.10
2018-08-22T04:01:54.759Z,20.10
2018-08-22T04:04:23.402Z,20.10
2018-08-22T04:06:52.078Z,20.10
2018-08-22T04:09:20.828Z,20.10
2018-08-22T04:11:49.452Z,20.20
2018-08-22T04:14:18.130Z,20.20
2018-08-22T04:16:46.764Z,20.20
2018-08-22T04:19:15.451Z,20.20
2018-08-22T04:21:44.103Z,20.10
2018-08-22T04:24:12.732Z,20.00
2018-08-22T04:26:41.365Z,20.00
2018-08-22T04:29:10.015Z,19.90
2018-08-22T04:31:38.656Z,19.90
2018-08-22T04:34:07.320Z,19.90
2018-08-22T04:36:35.965Z,19.90
2018-08-22T04:39:06.148Z,19.80
2018-08-22T04:41:34.787Z,19.80
2018-08-22T04:44:03.438Z,19.80
2018-08-22T04:46:32.582Z,19.80
2018-08-22T04:49:01.284Z,19.90
2018-08-22T04:51:29.943Z,19.90
2018-08-22T04:53:58.589Z,19.80
2018-08-22T04:56:27.256Z,19.80
2018-08-22T04:58:55.908Z,19.70
2018-08-22T05:01:24.499Z,19.70
2018-08-22T05:03:53.139Z,19.70
2018-08-22T05:06:21.865Z,19.70
2018-08-22T05:08:50.515Z,19.70
2018-08-22T05:11:19.223Z,19.70
2018-08-22T05:13:48.130Z,19.70
2018-08-22T05:16:16.756Z,19.70
2018-08-22T05:18:45.441Z,19.80
2018-08-22T05:21:14.069Z,19.80
2018-08-22T05:23:42.692Z,19.90
2018-08-22T05:26:11.665Z,19.90
2018-08-22T05:28:40.337Z,20.00
2018-08-22T05:31:08.984Z,20.00
2018-08-22T05:33:37.595Z,20.00
2018-08-22T05:36:06.040Z,20.00
2018-08-22T05:38:34.655Z,20.00
2018-08-22T05:41:03.271Z,20.10
2018-08-22T05:43:31.958Z,20.20
2018-08-22T05:46:00.605Z,20.20
2018-08-22T05:48:29.271Z,20.30
2018-08-22T05:50:57.913Z,20.30
2018-08-22T05:53:26.609Z,20.30
2018-08-22T05:55:55.598Z,20.30
2018-08-22T05:58:24.902Z,20.40
2018-08-22T06:00:53.607Z,20.30
2018-08-22T06:03:22.471Z,20.70
2018-08-22T06:05:51.262Z,20.70
2018-08-22T06:08:19.971Z,20.90
2018-08-22T06:10:48.572Z,21.00
2018-08-22T06:13:17.160Z,21.10
2018-08-22T06:15:46.378Z,21.10
2018-08-22T06:18:14.972Z,21.30
2018-08-22T06:20:43.549Z,21.40
2018-08-22T06:23:12.128Z,21.60
2018-08-22T06:25:41.111Z,21.80
2018-08-22T06:28:10.144Z,22.00
2018-08-22T06:30:39.132Z,22.30
2018-08-22T06:33:08.195Z,22.60
2018-08-22T06:35:37.099Z,23.00
2018-08-22T06:38:06.132Z,23.40
2018-08-22T06:40:35.047Z,23.70
2018-08-22T06:43:04.044Z,24.10
2018-08-22T06:45:32.627Z,24.50
2018-08-22T06:48:01.211Z,24.80
2018-08-22T06:50:29.801Z,25.10
2018-08-22T06:52:58.505Z,25.40
2018-08-22T06:58:29.535Z,26.20
2018-08-22T07:01:19.261Z,26.70
2018-08-22T07:03:48.023Z,27.10
2018-08-22T07:06:25.886Z,27.60
2018-08-22T07:09:06.816Z,28.00
2018-08-22T07:11:37.105Z,28.40
2018-08-22T07:14:07.155Z,28.70
2018-08-22T07:16:40.956Z,29.00
2018-08-22T07:19:10.890Z,29.40
2018-08-22T07:21:39.660Z,29.60
2018-08-22T07:24:11.729Z,29.90
2018-08-22T07:29:53.812Z,30.40
2018-08-22T07:32:24.111Z,30.70
2018-08-22T07:34:55.692Z,30.90
2018-08-22T07:37:28.596Z,31.10
2018-08-22T07:39:57.514Z,31.30
2018-08-22T07:42:31.521Z,31.30
2018-08-22T07:45:01.239Z,31.30
2018-08-22T07:47:29.881Z,31.20
2018-08-22T07:49:58.529Z,31.20
2018-08-22T07:52:27.164Z,31.20
2018-08-22T07:54:55.803Z,31.20
2018-08-22T07:57:24.440Z,31.20
2018-08-22T07:59:53.767Z,31.20
2018-08-22T08:02:22.437Z,31.00
2018-08-22T08:04:51.141Z,31.00
2018-08-22T08:07:19.772Z,30.90
2018-08-22T08:09:48.447Z,30.80
2018-08-22T08:12:18.725Z,30.80
2018-08-22T08:14:51.870Z,30.70
2018-08-22T08:17:20.556Z,30.70
2018-08-22T08:19:49.212Z,30.70
2018-08-22T08:22:17.977Z,30.70
2018-08-22T08:24:46.629Z,30.70
2018-08-22T08:27:15.313Z,30.50
2018-08-22T08:29:43.953Z,30.50
2018-08-22T08:32:12.597Z,30.40
2018-08-22T08:34:41.228Z,30.50
2018-08-22T08:37:09.918Z,30.70
2018-08-22T08:39:38.604Z,30.80
2018-08-22T08:42:07.266Z,31.00
2018-08-22T08:44:35.955Z,31.10
2018-08-22T08:47:04.592Z,31.20
2018-08-22T08:49:33.282Z,31.30
2018-08-22T08:52:02.660Z,31.30
2018-08-22T08:54:31.347Z,31.40
2018-08-22T08:57:00.022Z,31.60
2018-08-22T08:59:28.681Z,31.70
2018-08-22T09:01:57.370Z,31.60
2018-08-22T09:04:26.041Z,31.50
2018-08-22T09:06:54.812Z,31.30
2018-08-22T09:09:23.456Z,31.30
2018-08-22T09:11:59.675Z,31.30
2018-08-22T09:14:29.011Z,31.60
2018-08-22T09:16:58.582Z,32.00
2018-08-22T09:19:27.533Z,32.30
2018-08-22T09:21:56.241Z,32.60
2018-08-22T09:24:24.911Z,32.90
2018-08-22T09:26:53.617Z,33.10
2018-08-22T09:29:22.284Z,33.10
2018-08-22T09:31:50.982Z,33.00
2018-08-22T09:34:22.373Z,33.00
2018-08-22T09:36:55.256Z,32.90
2018-08-22T09:39:29.777Z,32.80
2018-08-22T09:42:03.997Z,32.80
2018-08-22T09:44:37.995Z,32.70
2018-08-22T09:47:14.599Z,32.70
2018-08-22T09:52:29.219Z,33.40
2018-08-22T09:55:11.121Z,33.50
2018-08-22T09:57:40.968Z,33.70
2018-08-22T10:00:19.920Z,33.80
2018-08-22T10:02:53.020Z,33.90
2018-08-22T10:05:27.044Z,34.00
2018-08-22T10:07:57.974Z,34.10
2018-08-22T10:10:32.997Z,34.20
2018-08-22T10:13:04.012Z,34.30
2018-08-22T10:15:36.652Z,34.40
2018-08-22T10:18:07.150Z,34.50
2018-08-22T10:20:49.460Z,34.60
2018-08-22T10:23:20.239Z,34.50
2018-08-22T10:26:00.845Z,34.30
2018-08-22T10:28:46.277Z,34.10
2018-08-22T10:31:25.005Z,34.00
2018-08-22T10:34:02.935Z,34.00
2018-08-22T10:36:35.611Z,34.00
2018-08-22T10:41:42.696Z,34.30
2018-08-22T10:44:23.842Z,34.40
2018-08-22T10:47:02.504Z,34.50
2018-08-22T10:49:33.329Z,34.60
2018-08-22T10:52:08.224Z,34.60
2018-08-22T10:54:42.869Z,34.60
2018-08-22T10:57:26.926Z,34.60
2018-08-22T10:59:59.367Z,34.50
2018-08-22T11:02:33.344Z,34.50
2018-08-22T11:05:05.001Z,34.60
2018-08-22T11:07:36.120Z,34.50
2018-08-22T11:10:14.383Z,34.50
2018-08-22T11:13:01.989Z,34.50
2018-08-22T11:15:33.604Z,34.70
2018-08-22T11:18:08.110Z,34.90
2018-08-22T11:20:51.715Z,34.90
2018-08-22T11:23:33.853Z,35.00
2018-08-22T11:26:15.096Z,35.20
2018-08-22T11:29:01.457Z,35.20
2018-08-22T11:31:42.925Z,35.30
2018-08-22T11:34:24.604Z,35.40
2018-08-22T11:37:11.556Z,35.50
2018-08-22T11:39:45.349Z,35.50
2018-08-22T11:42:18.300Z,35.60
2018-08-22T11:44:50.619Z,35.70
2018-08-22T11:47:23.162Z,35.80
2018-08-22T11:50:06.824Z,35.80
2018-08-22T11:52:44.475Z,35.90
2018-08-22T11:55:29.944Z,35.90
2018-08-22T11:58:05.318Z,36.00
2018-08-22T12:00:39.968Z,35.90
2018-08-22T12:03:16.940Z,36.00
2018-08-22T12:05:50.663Z,36.00
2018-08-22T12:08:21.421Z,36.20
2018-08-22T12:10:56.410Z,36.20
2018-08-22T12:13:42.590Z,36.30
2018-08-22T12:16:14.093Z,36.10
2018-08-22T12:18:49.800Z,36.40
2018-08-22T12:21:29.043Z,36.50
2018-08-22T12:24:08.227Z,36.50
2018-08-22T12:26:57.153Z,36.60
2018-08-22T12:29:32.313Z,36.70
2018-08-22T12:32:10.424Z,36.60
2018-08-22T12:34:45.394Z,36.60
2018-08-22T12:37:22.802Z,36.70
2018-08-22T12:39:55.740Z,36.80
2018-08-22T12:42:39.191Z,36.80
2018-08-22T12:45:13.981Z,36.80
2018-08-22T12:47:47.198Z,36.90
2018-08-22T12:50:20.630Z,36.90
2018-08-22T12:52:59.624Z,36.70
2018-08-22T12:55:34.359Z,36.30
2018-08-22T12:58:10.620Z,36.00
2018-08-22T13:00:45.471Z,36.00
2018-08-22T13:03:16.003Z,36.10
2018-08-22T13:05:50.801Z,36.20
2018-08-22T13:08:21.757Z,36.30
2018-08-22T13:10:51.177Z,36.10
2018-08-22T13:13:25.605Z,35.90
2018-08-22T13:15:59.568Z,35.70
2018-08-22T13:18:31.014Z,35.40
2018-08-22T13:21:03.033Z,35.20
2018-08-22T13:23:34.631Z,34.70
2018-08-22T13:28:56.367Z,34.40
2018-08-22T13:31:31.409Z,34.60
2018-08-22T13:34:10.759Z,34.80
2018-08-22T13:36:43.162Z,34.90
2018-08-22T13:39:25.229Z,34.80
2018-08-22T13:45:00.435Z,34.70
2018-08-22T13:47:34.472Z,34.60
2018-08-22T13:50:07.068Z,34.60
2018-08-22T13:52:43.548Z,34.70
2018-08-22T13:55:15.639Z,34.80
2018-08-22T13:57:49.447Z,34.80
2018-08-22T14:00:29.645Z,34.70
2018-08-22T14:03:01.950Z,34.60
2018-08-22T14:08:16.929Z,34.30
2018-08-22T14:10:50.652Z,34.20
2018-08-22T14:13:28.490Z,34.10
2018-08-22T14:16:00.826Z,34.00
2018-08-22T14:18:39.957Z,33.90
2018-08-22T14:21:20.801Z,33.30
2018-08-22T14:24:18.778Z,32.80
2018-08-22T14:26:57.194Z,32.30
2018-08-22T14:29:34.234Z,31.90
2018-08-22T14:32:13.488Z,31.30
2018-08-22T14:37:44.765Z,30.30
2018-08-22T14:40:21.932Z,29.90
2018-08-22T14:43:03.637Z,29.70
2018-08-22T14:45:40.371Z,29.50
2018-08-22T14:48:19.760Z,29.50
2018-08-22T14:51:04.514Z,29.50
2018-08-22T14:53:37.871Z,29.70
2018-08-22T14:56:16.715Z,29.80
2018-08-22T14:58:53.980Z,29.90
2018-08-22T15:01:42.204Z,29.80
2018-08-22T15:04:22.145Z,30.00
2018-08-22T15:06:55.680Z,30.00
2018-08-22T15:09:27.575Z,30.00
2018-08-22T15:12:05.724Z,30.00
2018-08-22T15:14:38.109Z,29.90
2018-08-22T15:17:16.872Z,29.90
2018-08-22T15:19:57.743Z,29.90
2018-08-22T15:22:35.365Z,29.80
2018-08-22T15:25:20.180Z,29.70
2018-08-22T15:27:56.061Z,29.60
2018-08-22T15:30:39.403Z,29.50
2018-08-22T15:33:25.468Z,29.30
2018-08-22T15:36:07.412Z,29.10
2018-08-22T15:38:44.328Z,28.80
2018-08-22T15:41:17.757Z,28.60
2018-08-22T15:43:50.288Z,28.30
2018-08-22T15:46:29.460Z,28.10
2018-08-22T15:49:10.621Z,27.90
2018-08-22T15:51:44.786Z,27.80
2018-08-22T15:54:18.976Z,27.70
2018-08-22T15:56:52.668Z,27.60
2018-08-22T15:59:29.269Z,27.40
2018-08-22T16:02:02.359Z,27.30
2018-08-22T16:04:49.757Z,27.30
2018-08-22T16:07:30.048Z,27.30
2018-08-22T16:10:26.878Z,27.20
2018-08-22T16:13:01.990Z,27.20
2018-08-22T16:15:39.893Z,27.00
2018-08-22T16:18:26.111Z,27.00
2018-08-22T16:21:17.727Z,26.90
2018-08-22T16:26:42.970Z,26.90
2018-08-22T16:29:25.373Z,26.80
2018-08-22T16:32:03.741Z,26.80
2018-08-22T16:34:42.863Z,26.80
2018-08-22T16:37:59.887Z,26.70
2018-08-22T16:40:39.411Z,26.70
2018-08-22T16:43:13.800Z,26.70
2018-08-22T16:45:52.144Z,26.70
2018-08-22T16:48:23.583Z,26.60
2018-08-22T16:51:02.013Z,26.60
2018-08-22T16:53:36.016Z,26.60
2018-08-22T16:56:11.985Z,26.50
2018-08-22T16:58:44.089Z,26.30
2018-08-22T17:01:23.309Z,26.20
2018-08-22T17:03:59.406Z,26.20
2018-08-22T17:06:39.488Z,26.20
2018-08-22T17:09:21.519Z,26.30
2018-08-22T17:11:59.056Z,26.30
2018-08-22T17:17:17.317Z,26.40
2018-08-22T17:19:51.336Z,26.30
2018-08-22T17:22:25.025Z,26.20
2018-08-22T17:25:03.717Z,26.10
2018-08-22T17:27:38.710Z,26.00
2018-08-22T17:30:16.933Z,25.90
2018-08-22T17:32:52.705Z,25.80
2018-08-22T17:35:36.520Z,25.70
2018-08-22T17:38:22.276Z,25.70
2018-08-22T17:40:56.808Z,25.80
2018-08-22T17:43:32.972Z,25.80
2018-08-22T17:46:16.674Z,25.90
2018-08-22T17:49:06.142Z,25.90
2018-08-22T17:51:44.605Z,25.90
2018-08-22T17:54:13.204Z,25.90
2018-08-22T17:56:41.800Z,25.90
2018-08-22T17:59:10.439Z,25.90
2018-08-22T18:01:39.037Z,25.90
2018-08-22T18:04:07.651Z,25.90
2018-08-22T18:06:36.256Z,25.80
2018-08-22T18:09:05.812Z,25.80
2018-08-22T18:11:34.425Z,25.70
2018-08-22T18:14:03.081Z,25.60
2018-08-22T18:16:31.734Z,25.50
2018-08-22T18:19:00.341Z,25.50
2018-08-22T18:21:33.380Z,25.40
2018-08-22T18:24:02.539Z,25.50
2018-08-22T18:26:31.187Z,25.40
2018-08-22T18:28:59.792Z,25.30
2018-08-22T18:31:28.393Z,25.40
2018-08-22T18:33:59.103Z,25.40
2018-08-22T18:36:31.710Z,25.40
2018-08-22T18:39:04.912Z,25.40
2018-08-22T18:41:33.512Z,25.30
2018-08-22T18:44:02.412Z,25.30
2018-08-22T18:46:31.043Z,25.30
2018-08-22T18:49:00.735Z,25.30
2018-08-22T18:51:29.364Z,25.40
2018-08-22T18:53:58.948Z,25.40
2018-08-22T18:56:28.346Z,25.40
2018-08-22T18:58:56.971Z,25.30
2018-08-22T19:01:26.015Z,25.30
2018-08-22T19:03:56.339Z,25.30
2018-08-22T19:06:25.005Z,25.30
2018-08-22T19:08:53.608Z,25.20
2018-08-22T19:11:22.285Z,25.10
2018-08-22T19:13:50.883Z,25.00
2018-08-22T19:16:19.751Z,24.90
2018-08-22T19:18:48.358Z,24.90
2018-08-22T19:21:16.940Z,24.80
2018-08-22T19:23:50.035Z,24.80
2018-08-22T19:26:18.748Z,24.80
2018-08-22T19:28:55.800Z,24.70
2018-08-22T19:31:24.431Z,24.70
2018-08-22T19:33:54.172Z,24.60
2018-08-22T19:36:22.915Z,24.60
2018-08-22T19:38:51.674Z,24.50
2018-08-22T19:41:24.064Z,24.40
2018-08-22T19:43:52.936Z,24.40
2018-08-22T19:46:22.096Z,24.40
2018-08-22T19:48:51.533Z,24.30
2018-08-22T19:51:20.640Z,24.20
2018-08-22T19:53:57.343Z,24.20
2018-08-22T19:56:26.634Z,24.10
2018-08-22T19:58:55.229Z,24.00
2018-08-22T20:01:23.843Z,24.00
2018-08-22T20:03:53.971Z,23.90
2018-08-22T20:06:23.115Z,23.70
2018-08-22T20:08:53.563Z,23.80
2018-08-22T20:11:22.288Z,23.70
2018-08-22T20:13:56.144Z,23.70
2018-08-22T20:16:24.828Z,23.60
2018-08-22T20:18:55.528Z,23.50
2018-08-22T20:21:34.905Z,23.40
2018-08-22T20:24:05.186Z,23.40
2018-08-22T20:26:34.056Z,23.30
2018-08-22T20:29:03.605Z,23.20
2018-08-22T20:31:32.938Z,23.20
2018-08-22T20:34:10.404Z,23.10
2018-08-22T20:36:39.098Z,22.90
2018-08-22T20:39:10.050Z,22.90
2018-08-22T20:41:40.090Z,22.90
2018-08-22T20:44:11.272Z,22.80
2018-08-22T20:46:41.652Z,22.80
2018-08-22T20:49:10.342Z,22.80
2018-08-22T20:51:38.935Z,22.80
2018-08-22T20:54:12.720Z,22.80
2018-08-22T20:56:47.472Z,22.80
2018-08-22T20:59:17.448Z,22.80
2018-08-22T21:01:48.816Z,22.70
2018-08-22T21:04:17.420Z,22.70
2018-08-22T21:06:46.113Z,22.80
2018-08-22T21:09:14.707Z,22.70
2018-08-22T21:11:43.856Z,22.70
2018-08-22T21:14:13.208Z,22.60
2018-08-22T21:16:41.836Z,22.50
2018-08-22T21:19:10.452Z,22.50
2018-08-22T21:21:39.079Z,22.40
2018-08-22T21:24:07.703Z,22.30
2018-08-22T21:26:41.049Z,22.30
2018-08-22T21:29:09.978Z,22.20
2018-08-22T21:31:38.601Z,22.30
2018-08-22T21:34:13.562Z,22.20
2018-08-22T21:36:44.724Z,22.20
2018-08-22T21:39:18.817Z,22.20
2018-08-22T21:41:47.886Z,22.30
2018-08-22T21:44:19.224Z,22.20
2018-08-22T21:46:58.559Z,22.20
2018-08-22T21:49:29.762Z,22.20
2018-08-22T21:52:02.324Z,22.30
2018-08-22T21:54:31.559Z,22.30
2018-08-22T21:57:00.318Z,22.40
2018-08-22T21:59:29.504Z,22.40
2018-08-22T22:02:03.673Z,22.30
2018-08-22T22:04:36.156Z,22.30
2018-08-22T22:07:06.672Z,22.30
2018-08-22T22:09:36.684Z,22.40
2018-08-22T22:12:11.359Z,22.40
2018-08-22T22:14:45.260Z,22.40
2018-08-22T22:17:13.939Z,22.30
2018-08-22T22:19:42.601Z,22.30
2018-08-22T22:22:11.231Z,22.30
2018-08-22T22:24:50.431Z,22.20
2018-08-22T22:27:19.097Z,22.20
2018-08-22T22:29:47.693Z,22.20
2018-08-22T22:32:16.334Z,22.10
2018-08-22T22:34:44.964Z,22.20
2018-08-22T22:37:13.559Z,22.30
2018-08-22T22:39:43.612Z,22.30
2018-08-22T22:42:21.554Z,22.30
2018-08-22T22:44:52.268Z,22.30
2018-08-22T22:47:26.392Z,22.30
2018-08-22T22:49:55.547Z,22.30
2018-08-22T22:52:31.505Z,22.30
2018-08-22T22:55:01.512Z,22.20
2018-08-22T22:57:32.273Z,22.20
2018-08-22T23:00:01.776Z,22.10
2018-08-22T23:02:30.943Z,22.00
2018-08-22T23:05:00.271Z,21.90
2018-08-22T23:07:35.419Z,21.80
2018-08-22T23:10:05.410Z,21.80
2018-08-22T23:12:48.365Z,21.80
2018-08-22T23:15:20.149Z,21.90
2018-08-22T23:17:49.846Z,21.90
2018-08-22T23:20:30.380Z,21.80
2018-08-22T23:22:59.337Z,21.80
2018-08-22T23:25:28.464Z,21.70
2018-08-22T23:27:57.217Z,21.70
2018-08-22T23:30:32.195Z,21.60
2018-08-22T23:33:00.879Z,21.60
2018-08-22T23:35:30.960Z,21.40
2018-08-22T23:38:01.612Z,21.40
2018-08-22T23:40:33.243Z,21.50
2018-08-22T23:43:02.135Z,21.50
2018-08-22T23:45:35.903Z,21.50
2018-08-22T23:48:05.540Z,21.60
2018-08-22T23:50:56.832Z,21.60
2018-08-22T23:53:47.393Z,21.50
2018-08-22T23:56:32.876Z,21.40
2018-08-22T23:59:27.539Z,21.40
